Terminal Aerodrome Forecast
Issued by NWS Grand Rapids, MI

Home | Current Version | Previous Version | Text Only | Print | Product List | Glossary On
Versions: 1 2 3 4 5 6 7 8 9 10 11 12 13
432
FTUS43 KGRR 200540
TAFGRR
TAF
KGRR 200540Z 2006/2106 VRB04KT P6SM BKN200
     FM201000 11007KT 4SM BR BKN200
     FM201500 12011KT P6SM OVC180=

USA.gov is the U.S. government's official web portal to all federal, state and local government web resources and services.